createdAt,value
2022-12-18T00:00:11.423Z,8.97
2022-12-18T00:02:44.009Z,9.87
2022-12-18T00:05:13.542Z,9.73
2022-12-18T00:07:42.036Z,10.63
2022-12-18T00:10:10.986Z,9.80
2022-12-18T00:12:43.954Z,9.43
2022-12-18T00:15:12.720Z,10.23
2022-12-18T00:17:41.272Z,10.20
2022-12-18T00:20:12.270Z,11.07
2022-12-18T00:22:40.844Z,8.70
2022-12-18T00:25:10.477Z,9.50
2022-12-18T00:27:39.024Z,9.80
2022-12-18T00:30:08.669Z,10.43
2022-12-18T00:32:38.136Z,10.30
2022-12-18T00:35:08.118Z,10.37
2022-12-18T00:37:38.826Z,10.57
2022-12-18T00:40:09.133Z,9.97
2022-12-18T00:43:08.207Z,10.40
2022-12-18T00:45:36.821Z,10.37
2022-12-18T00:48:06.057Z,11.53
2022-12-18T00:50:34.567Z,10.30
2022-12-18T00:53:04.616Z,10.47
2022-12-18T00:55:33.888Z,11.90
2022-12-18T00:58:02.396Z,12.80
2022-12-18T01:00:31.101Z,11.73
2022-12-18T01:02:59.583Z,11.60
2022-12-18T01:05:28.550Z,12.07
2022-12-18T01:07:58.024Z,12.27
2022-12-18T01:10:28.231Z,11.93
2022-12-18T01:12:59.667Z,12.60
2022-12-18T01:15:28.375Z,11.83
2022-12-18T01:17:57.025Z,11.33
2022-12-18T01:20:25.601Z,13.13
2022-12-18T01:22:54.118Z,12.80
2022-12-18T01:25:22.773Z,12.13
2022-12-18T01:27:54.284Z,12.40
2022-12-18T01:30:22.831Z,13.40
2022-12-18T01:32:51.367Z,13.37
2022-12-18T01:35:19.992Z,12.77
2022-12-18T01:37:48.663Z,13.20
2022-12-18T01:40:17.252Z,12.80
2022-12-18T01:42:45.707Z,13.07
2022-12-18T01:45:30.554Z,13.97
2022-12-18T01:48:01.447Z,13.13
2022-12-18T01:50:34.777Z,12.40
2022-12-18T01:53:08.530Z,12.90
2022-12-18T01:55:40.209Z,12.33
2022-12-18T01:58:08.855Z,12.47
2022-12-18T02:00:39.128Z,12.13
2022-12-18T02:03:07.847Z,13.10
2022-12-18T02:05:46.109Z,15.10
2022-12-18T02:08:20.907Z,13.53
2022-12-18T02:10:58.634Z,13.13
2022-12-18T02:13:36.772Z,13.60
2022-12-18T02:16:15.932Z,12.47
2022-12-18T02:18:49.631Z,12.63
2022-12-18T02:21:30.401Z,13.77
2022-12-18T02:24:12.122Z,12.53
2022-12-18T02:26:47.347Z,11.57
2022-12-18T02:29:19.686Z,12.10
2022-12-18T02:31:52.763Z,11.63
2022-12-18T02:34:25.240Z,11.27
2022-12-18T02:36:55.850Z,11.03
2022-12-18T02:39:31.225Z,12.30
2022-12-18T02:42:08.949Z,12.50
2022-12-18T02:44:44.532Z,13.30
2022-12-18T02:47:15.404Z,12.70
2022-12-18T02:49:55.457Z,13.23
2022-12-18T02:52:33.686Z,12.47
2022-12-18T02:55:16.355Z,11.10
2022-12-18T02:57:54.140Z,12.77
2022-12-18T03:00:30.906Z,10.77
2022-12-18T03:03:07.425Z,11.43
2022-12-18T03:05:40.683Z,11.47
2022-12-18T03:08:14.480Z,12.33
2022-12-18T03:10:51.927Z,13.63
2022-12-18T03:13:27.383Z,12.23
2022-12-18T03:15:59.113Z,12.17
2022-12-18T03:18:32.390Z,12.67
2022-12-18T03:21:05.760Z,11.67
2022-12-18T03:23:42.503Z,11.77
2022-12-18T03:26:17.667Z,12.73
2022-12-18T03:28:53.168Z,12.93
2022-12-18T03:31:24.953Z,13.57
2022-12-18T03:33:55.866Z,11.13
2022-12-18T03:36:30.520Z,12.53
2022-12-18T03:38:59.013Z,12.73
2022-12-18T03:41:34.479Z,13.07
2022-12-18T03:44:29.172Z,11.57
2022-12-18T03:47:03.304Z,11.83
2022-12-18T03:49:37.126Z,12.50
2022-12-18T03:52:13.022Z,13.63
2022-12-18T03:54:45.372Z,13.40
2022-12-18T03:57:20.120Z,12.03
2022-12-18T03:59:56.383Z,12.87
2022-12-18T04:02:29.949Z,12.50
2022-12-18T04:05:04.644Z,11.83
2022-12-18T04:07:34.157Z,12.30
2022-12-18T04:10:05.461Z,12.53
2022-12-18T04:12:34.313Z,11.97
2022-12-18T04:15:04.624Z,11.73
2022-12-18T04:17:33.242Z,13.27
2022-12-18T04:20:03.346Z,11.80
2022-12-18T04:22:32.889Z,12.10
2022-12-18T04:25:01.974Z,11.13
2022-12-18T04:27:37.793Z,11.70
2022-12-18T04:30:10.336Z,11.23
2022-12-18T04:32:38.923Z,12.83
2022-12-18T04:35:11.469Z,13.70
2022-12-18T04:37:41.436Z,13.00
2022-12-18T04:40:11.276Z,12.47
2022-12-18T04:42:44.176Z,14.07
2022-12-18T04:45:14.108Z,12.80
2022-12-18T04:47:42.595Z,14.03
2022-12-18T04:50:11.363Z,14.87
2022-12-18T04:52:39.863Z,13.80
2022-12-18T04:55:08.972Z,12.23
2022-12-18T04:57:37.472Z,13.10
2022-12-18T05:00:07.163Z,15.47
2022-12-18T05:02:37.182Z,14.20
2022-12-18T05:05:07.129Z,14.87
2022-12-18T05:07:35.780Z,14.17
2022-12-18T05:10:05.371Z,14.47
2022-12-18T05:12:34.680Z,15.40
2022-12-18T05:15:07.033Z,14.47
2022-12-18T05:17:36.952Z,14.87
2022-12-18T05:20:06.121Z,15.20
2022-12-18T05:22:34.678Z,14.57
2022-12-18T05:25:03.256Z,13.40
2022-12-18T05:27:31.752Z,14.67
2022-12-18T05:30:00.279Z,13.80
2022-12-18T05:32:28.854Z,13.87
2022-12-18T05:34:58.707Z,13.80
2022-12-18T05:37:27.260Z,13.80
2022-12-18T05:39:55.798Z,15.27
2022-12-18T05:42:24.359Z,14.63
2022-12-18T05:44:52.945Z,15.60
2022-12-18T05:47:21.588Z,13.97
2022-12-18T05:49:50.108Z,14.30
2022-12-18T05:52:20.048Z,14.70
2022-12-18T05:54:48.724Z,14.30
2022-12-18T05:57:17.458Z,14.47
2022-12-18T05:59:46.004Z,14.87
2022-12-18T06:02:14.746Z,14.50
2022-12-18T06:04:43.359Z,14.97
2022-12-18T06:07:12.097Z,14.83
2022-12-18T06:09:42.042Z,15.43
2022-12-18T06:12:11.646Z,14.13
2022-12-18T06:14:40.174Z,15.37
2022-12-18T06:17:08.800Z,14.97
2022-12-18T06:19:37.648Z,14.63
2022-12-18T06:22:06.213Z,14.77
2022-12-18T06:24:35.131Z,14.40
2022-12-18T06:27:05.344Z,14.10
2022-12-18T06:29:33.875Z,14.50
2022-12-18T06:32:02.471Z,15.27
2022-12-18T06:34:31.032Z,13.93
2022-12-18T06:36:59.773Z,14.83
2022-12-18T06:39:29.636Z,14.73
2022-12-18T06:41:58.209Z,15.07
2022-12-18T06:44:28.033Z,14.27
2022-12-18T06:46:57.210Z,14.37
2022-12-18T06:49:30.312Z,14.83
2022-12-18T06:51:59.210Z,13.83
2022-12-18T06:54:27.842Z,13.27
2022-12-18T06:56:56.578Z,14.93
2022-12-18T06:59:25.054Z,16.07
2022-12-18T07:01:56.083Z,13.93
2022-12-18T07:04:29.114Z,14.50
2022-12-18T07:06:58.224Z,14.43
2022-12-18T07:09:29.598Z,15.13
2022-12-18T07:11:58.120Z,14.93
2022-12-18T07:14:26.754Z,15.80
2022-12-18T07:16:56.715Z,15.77
2022-12-18T07:19:26.802Z,14.63
2022-12-18T07:21:55.398Z,16.03
2022-12-18T07:24:24.005Z,14.20
2022-12-18T07:26:52.533Z,14.13
2022-12-18T07:29:21.125Z,15.13
2022-12-18T07:31:50.089Z,13.57
2022-12-18T07:34:20.137Z,14.07
2022-12-18T07:36:48.708Z,14.23
2022-12-18T07:39:17.610Z,14.57
2022-12-18T07:42:06.764Z,14.90
2022-12-18T07:44:35.353Z,15.27
2022-12-18T07:47:06.596Z,14.93
2022-12-18T07:49:40.351Z,13.73
2022-12-18T07:52:10.509Z,15.97
2022-12-18T07:54:39.048Z,15.43
2022-12-18T07:57:21.301Z,14.93
2022-12-18T07:59:56.404Z,15.40
2022-12-18T08:02:25.014Z,15.47
2022-12-18T08:04:55.036Z,14.60
2022-12-18T08:07:23.627Z,15.17
2022-12-18T08:09:52.338Z,15.73
2022-12-18T08:12:20.946Z,15.73
2022-12-18T08:14:49.532Z,14.07
2022-12-18T08:17:18.105Z,15.50
2022-12-18T08:19:46.797Z,15.40
2022-12-18T08:22:16.715Z,14.87
2022-12-18T08:24:45.259Z,13.93
2022-12-18T08:27:29.052Z,15.67
2022-12-18T08:29:59.195Z,14.40
2022-12-18T08:32:29.052Z,15.20
2022-12-18T08:34:57.624Z,15.27
2022-12-18T08:37:27.579Z,15.47
2022-12-18T08:39:56.271Z,14.73
2022-12-18T08:42:42.239Z,14.97
2022-12-18T08:45:11.527Z,14.87
2022-12-18T08:47:40.176Z,14.63
2022-12-18T08:50:09.284Z,14.77
2022-12-18T08:52:39.212Z,14.20
2022-12-18T08:55:09.340Z,13.93
2022-12-18T08:57:37.989Z,12.07
2022-12-18T09:00:07.715Z,13.93
2022-12-18T09:02:36.604Z,14.03
2022-12-18T09:05:05.738Z,13.73
2022-12-18T09:07:34.210Z,15.23
2022-12-18T09:10:04.697Z,13.20
2022-12-18T09:12:33.342Z,15.97
2022-12-18T09:15:01.887Z,14.93
2022-12-18T09:17:30.670Z,14.60
2022-12-18T09:19:59.223Z,15.07
2022-12-18T09:22:27.836Z,14.90
2022-12-18T09:24:56.370Z,14.17
2022-12-18T09:27:26.358Z,13.57
2022-12-18T09:29:55.211Z,14.00
2022-12-18T09:32:23.859Z,14.17
2022-12-18T09:34:52.363Z,13.93
2022-12-18T09:37:20.883Z,14.20
2022-12-18T09:39:49.563Z,13.60
2022-12-18T09:42:23.674Z,15.20
2022-12-18T09:44:56.023Z,13.60
2022-12-18T09:47:30.711Z,14.77
2022-12-18T09:50:01.499Z,14.80
2022-12-18T09:52:34.361Z,14.03
2022-12-18T09:55:06.861Z,14.87
2022-12-18T09:57:41.269Z,15.60
2022-12-18T10:00:20.188Z,15.10
2022-12-18T10:02:49.508Z,14.33
2022-12-18T10:05:19.706Z,14.70
2022-12-18T10:08:01.587Z,16.23
2022-12-18T10:10:39.913Z,14.87
2022-12-18T10:13:16.509Z,13.83
2022-12-18T10:16:00.541Z,14.60
2022-12-18T10:18:49.116Z,15.07
2022-12-18T10:21:21.865Z,14.63
2022-12-18T10:23:59.680Z,14.37
2022-12-18T10:26:28.309Z,15.60
2022-12-18T10:29:05.126Z,15.20
2022-12-18T10:31:35.350Z,16.10
2022-12-18T10:34:04.406Z,15.40
2022-12-18T10:36:33.002Z,15.23
2022-12-18T10:39:17.138Z,14.97
2022-12-18T10:41:45.832Z,15.13
2022-12-18T10:44:25.363Z,15.93
2022-12-18T10:46:57.813Z,17.27
2022-12-18T10:49:28.990Z,14.87
2022-12-18T10:52:08.911Z,16.63
2022-12-18T10:54:38.102Z,16.00
2022-12-18T10:57:30.982Z,16.33
2022-12-18T11:00:01.181Z,13.80
2022-12-18T11:02:37.417Z,14.67
2022-12-18T11:05:26.371Z,16.70
2022-12-18T11:07:56.033Z,14.87
2022-12-18T11:10:28.213Z,17.07
2022-12-18T11:13:10.950Z,16.00
2022-12-18T11:15:41.972Z,14.23
2022-12-18T11:18:21.786Z,16.00
2022-12-18T11:20:58.528Z,14.40
2022-12-18T11:23:28.899Z,16.27
2022-12-18T11:26:01.246Z,15.90
2022-12-18T11:28:42.044Z,15.10
2022-12-18T11:31:21.616Z,16.77
2022-12-18T11:36:56.584Z,15.13
2022-12-18T11:39:33.858Z,14.50
2022-12-18T11:42:13.766Z,16.33
2022-12-18T11:44:50.184Z,16.23
2022-12-18T11:47:27.523Z,15.87
2022-12-18T11:50:00.940Z,17.10
2022-12-18T11:52:34.087Z,15.57
2022-12-18T11:55:10.824Z,15.93
2022-12-18T11:57:50.983Z,15.77
2022-12-18T12:00:24.521Z,14.73
2022-12-18T12:03:24.264Z,15.97
2022-12-18T12:06:06.451Z,15.80
2022-12-18T12:08:46.464Z,16.57
2022-12-18T12:11:24.506Z,16.23
2022-12-18T12:14:05.793Z,15.47
2022-12-18T12:16:39.674Z,16.93
2022-12-18T12:19:24.095Z,15.13
2022-12-18T12:22:06.032Z,16.60
2022-12-18T12:24:45.343Z,15.63
2022-12-18T12:27:21.509Z,16.53
2022-12-18T12:30:02.774Z,16.83
2022-12-18T12:32:47.674Z,16.83
2022-12-18T12:35:27.351Z,15.93
2022-12-18T12:38:06.433Z,16.77
2022-12-18T12:40:58.847Z,16.47
2022-12-18T12:43:32.132Z,16.57
2022-12-18T12:46:05.435Z,16.33
2022-12-18T12:48:43.293Z,17.17
2022-12-18T12:51:18.262Z,16.33
2022-12-18T12:53:48.954Z,16.63
2022-12-18T12:56:20.251Z,16.93
2022-12-18T12:58:59.340Z,16.80
2022-12-18T13:01:39.102Z,16.60
2022-12-18T13:04:21.504Z,16.63
2022-12-18T13:06:55.792Z,16.40
2022-12-18T13:09:25.715Z,16.90
2022-12-18T13:12:11.509Z,16.20
2022-12-18T13:14:42.802Z,16.77
2022-12-18T13:17:32.925Z,16.77
2022-12-18T13:20:14.472Z,16.63
2022-12-18T13:22:47.957Z,16.73
2022-12-18T13:25:36.707Z,17.53
2022-12-18T13:28:12.496Z,18.43
2022-12-18T13:30:55.453Z,16.87
2022-12-18T13:36:38.579Z,18.13
2022-12-18T13:39:35.915Z,18.10
2022-12-18T13:43:00.363Z,15.90
2022-12-18T13:45:47.587Z,18.87
2022-12-18T13:48:24.170Z,17.43
2022-12-18T13:51:00.934Z,17.63
2022-12-18T13:53:32.737Z,16.67
2022-12-18T13:56:01.694Z,15.57
2022-12-18T13:58:31.861Z,17.37
2022-12-18T14:01:02.958Z,18.03
2022-12-18T14:03:32.459Z,18.43
2022-12-18T14:06:08.136Z,18.20
2022-12-18T14:08:41.587Z,18.33
2022-12-18T14:11:21.809Z,17.13
2022-12-18T14:13:52.895Z,17.27
2022-12-18T14:16:21.852Z,17.33
2022-12-18T14:18:55.477Z,16.37
2022-12-18T14:21:28.825Z,18.53
2022-12-18T14:24:14.220Z,17.07
2022-12-18T14:26:43.772Z,18.43
2022-12-18T14:29:25.631Z,16.57
2022-12-18T14:32:13.364Z,18.07
2022-12-18T14:34:45.468Z,17.80
2022-12-18T14:37:15.003Z,18.00
2022-12-18T14:39:54.832Z,18.33
2022-12-18T14:42:23.484Z,18.13
2022-12-18T14:47:45.607Z,18.93
2022-12-18T14:50:22.381Z,18.57
2022-12-18T14:52:51.455Z,17.77
2022-12-18T14:55:21.422Z,18.77
2022-12-18T14:57:54.030Z,18.63
2022-12-18T15:00:27.738Z,18.43
2022-12-18T15:02:58.690Z,17.87
2022-12-18T15:05:29.464Z,17.50
2022-12-18T15:08:00.127Z,18.90
2022-12-18T15:10:30.319Z,18.37
2022-12-18T15:13:22.319Z,18.40
2022-12-18T15:15:53.434Z,18.53
2022-12-18T15:18:28.620Z,18.63
2022-12-18T15:21:00.060Z,17.80
2022-12-18T15:23:31.682Z,17.53
2022-12-18T15:26:01.789Z,17.83
2022-12-18T15:28:34.499Z,19.70
2022-12-18T15:31:07.483Z,19.90
2022-12-18T15:33:38.442Z,18.90
2022-12-18T15:36:10.972Z,19.03
2022-12-18T15:38:39.637Z,20.30
2022-12-18T15:41:14.092Z,18.77
2022-12-18T15:43:42.718Z,20.53
2022-12-18T15:46:15.269Z,19.43
2022-12-18T15:48:45.955Z,18.93
2022-12-18T15:51:18.099Z,19.93
2022-12-18T15:53:47.704Z,19.73
2022-12-18T15:56:35.182Z,19.33
2022-12-18T15:59:04.323Z,19.40
2022-12-18T16:01:37.079Z,18.47
2022-12-18T16:04:11.793Z,19.97
2022-12-18T16:07:12.858Z,19.60
2022-12-18T16:09:29.111Z,18.93
2022-12-18T16:12:05.101Z,18.40
2022-12-18T16:14:34.221Z,18.80
2022-12-18T16:17:11.052Z,19.23
2022-12-18T16:19:39.788Z,19.10
2022-12-18T16:22:17.535Z,19.93
2022-12-18T16:24:46.125Z,19.93
2022-12-18T16:27:14.823Z,20.37
2022-12-18T16:29:43.587Z,20.10
2022-12-18T16:32:16.253Z,19.80
2022-12-18T16:34:45.790Z,20.13
2022-12-18T16:37:16.311Z,21.10
2022-12-18T16:39:46.682Z,20.97
2022-12-18T16:42:19.953Z,20.93
2022-12-18T16:44:50.715Z,19.97
2022-12-18T16:47:21.195Z,20.13
2022-12-18T16:49:51.664Z,20.63
2022-12-18T16:52:20.984Z,20.30
2022-12-18T16:54:49.810Z,19.83
2022-12-18T16:57:21.540Z,21.60
2022-12-18T16:59:54.185Z,20.67
2022-12-18T17:02:26.083Z,20.67
2022-12-18T17:04:57.296Z,20.40
2022-12-18T17:07:26.445Z,21.37
2022-12-18T17:09:55.149Z,22.80
2022-12-18T17:12:24.345Z,21.97
2022-12-18T17:14:52.873Z,21.17
2022-12-18T17:17:24.012Z,22.27
2022-12-18T17:19:53.545Z,22.10
2022-12-18T17:22:23.201Z,23.20
2022-12-18T17:24:51.837Z,22.90
2022-12-18T17:27:20.400Z,22.17
2022-12-18T17:29:49.311Z,22.57
2022-12-18T17:32:18.403Z,22.87
2022-12-18T17:34:48.395Z,23.30
2022-12-18T17:37:17.156Z,22.83
2022-12-18T17:39:45.784Z,22.20
2022-12-18T17:42:15.961Z,21.70
2022-12-18T17:44:45.224Z,21.87
2022-12-18T17:47:14.556Z,24.30
2022-12-18T17:49:43.113Z,22.07
2022-12-18T17:52:13.135Z,22.77
2022-12-18T17:54:42.282Z,21.73
2022-12-18T17:57:11.397Z,22.77
2022-12-18T17:59:39.925Z,23.13
2022-12-18T18:02:10.842Z,24.23
2022-12-18T18:04:39.487Z,22.17
2022-12-18T18:07:08.055Z,22.80
2022-12-18T18:09:38.075Z,24.60
2022-12-18T18:12:24.711Z,23.10
2022-12-18T18:14:53.572Z,23.80
2022-12-18T18:17:22.425Z,24.03
2022-12-18T18:19:50.963Z,18.33
2022-12-18T18:22:20.125Z,23.53
2022-12-18T18:24:50.150Z,23.50
2022-12-18T18:27:18.846Z,22.43
2022-12-18T18:29:47.711Z,23.17
2022-12-18T18:32:16.227Z,24.43
2022-12-18T18:34:44.879Z,23.23
2022-12-18T18:37:13.611Z,24.37
2022-12-18T18:39:42.269Z,25.50
2022-12-18T18:42:12.117Z,23.80
2022-12-18T18:44:44.440Z,24.27
2022-12-18T18:47:15.987Z,22.63
2022-12-18T18:49:44.529Z,23.67
2022-12-18T18:52:13.106Z,23.87
2022-12-18T18:54:57.275Z,22.57
2022-12-18T18:57:31.514Z,23.63
2022-12-18T19:00:00.086Z,24.23
2022-12-18T19:02:28.647Z,23.37
2022-12-18T19:04:57.988Z,24.00
2022-12-18T19:07:29.841Z,23.23
2022-12-18T19:10:04.825Z,22.10
2022-12-18T19:12:53.513Z,24.73
2022-12-18T19:15:24.047Z,23.97
2022-12-18T19:17:52.605Z,22.97
2022-12-18T19:20:21.501Z,23.57
2022-12-18T19:22:55.274Z,23.03
2022-12-18T19:25:38.201Z,21.40
2022-12-18T19:28:21.480Z,23.93
2022-12-18T19:30:58.630Z,22.83
2022-12-18T19:33:44.370Z,23.70
2022-12-18T19:36:16.201Z,23.53
2022-12-18T19:38:46.205Z,24.83
2022-12-18T19:41:15.707Z,23.80
2022-12-18T19:43:46.705Z,22.50
2022-12-18T19:46:16.883Z,24.47
2022-12-18T19:48:45.821Z,23.60
2022-12-18T19:51:16.896Z,24.57
2022-12-18T19:53:46.004Z,23.77
2022-12-18T19:56:17.739Z,22.47
2022-12-18T19:58:48.042Z,24.13
2022-12-18T20:01:19.457Z,23.10
2022-12-18T20:03:52.631Z,22.80
2022-12-18T20:06:27.349Z,23.13
2022-12-18T20:09:00.568Z,24.50
2022-12-18T20:11:30.536Z,23.47
2022-12-18T20:14:00.532Z,23.30
2022-12-18T20:16:29.435Z,23.03
2022-12-18T20:18:59.740Z,21.90
2022-12-18T20:21:28.859Z,22.83
2022-12-18T20:23:59.102Z,24.10
2022-12-18T20:26:28.296Z,23.90
2022-12-18T20:28:56.983Z,22.73
2022-12-18T20:31:27.082Z,23.10
2022-12-18T20:34:00.463Z,23.13
2022-12-18T20:36:31.802Z,22.57
2022-12-18T20:39:02.746Z,23.13
2022-12-18T20:41:38.154Z,23.70
2022-12-18T20:44:10.941Z,22.10
2022-12-18T20:46:53.660Z,24.37
2022-12-18T20:49:22.876Z,23.40
2022-12-18T20:51:52.532Z,21.87
2022-12-18T20:54:21.284Z,22.07
2022-12-18T20:56:49.990Z,22.80
2022-12-18T20:59:19.740Z,21.97
2022-12-18T21:01:49.525Z,21.57
2022-12-18T21:04:20.188Z,22.03
2022-12-18T21:06:53.308Z,22.47
2022-12-18T21:09:24.274Z,22.17
2022-12-18T21:12:13.971Z,22.93
2022-12-18T21:14:43.575Z,22.23
2022-12-18T21:17:12.290Z,22.97
2022-12-18T21:19:42.339Z,23.67
2022-12-18T21:22:11.891Z,23.47
2022-12-18T21:24:41.083Z,22.90
2022-12-18T21:27:09.885Z,23.57
2022-12-18T21:29:43.463Z,23.17
2022-12-18T21:32:12.607Z,21.73
2022-12-18T21:34:47.765Z,23.03
2022-12-18T21:37:16.739Z,22.60
2022-12-18T21:39:45.219Z,23.43
2022-12-18T21:42:31.396Z,24.07
2022-12-18T21:44:59.878Z,23.03
2022-12-18T21:47:28.457Z,21.97
2022-12-18T21:49:58.318Z,25.67
2022-12-18T21:52:31.740Z,23.77
2022-12-18T21:55:08.451Z,23.47
2022-12-18T21:57:38.945Z,22.63
2022-12-18T22:00:18.674Z,22.03
2022-12-18T22:03:17.584Z,23.83
2022-12-18T22:05:38.891Z,23.40
2022-12-18T22:08:07.688Z,25.03
2022-12-18T22:10:36.408Z,24.33
2022-12-18T22:13:05.826Z,24.47
2022-12-18T22:15:34.591Z,23.30
2022-12-18T22:18:03.343Z,22.77
2022-12-18T22:20:31.922Z,24.13
2022-12-18T22:23:05.725Z,24.57
2022-12-18T22:25:35.999Z,24.90
2022-12-18T22:28:25.780Z,23.40
2022-12-18T22:30:59.276Z,26.17
2022-12-18T22:33:29.124Z,25.27
2022-12-18T22:35:57.798Z,24.00
2022-12-18T22:38:27.651Z,25.87
2022-12-18T22:40:56.265Z,23.73
2022-12-18T22:43:25.094Z,23.53
2022-12-18T22:45:54.138Z,25.37
2022-12-18T22:48:23.092Z,23.07
2022-12-18T22:50:51.750Z,23.70
2022-12-18T22:53:24.567Z,24.07
2022-12-18T22:56:01.552Z,23.57
2022-12-18T22:58:30.076Z,23.07
2022-12-18T23:00:59.284Z,23.43
2022-12-18T23:03:46.694Z,24.10
2022-12-18T23:06:15.584Z,24.07
2022-12-18T23:08:44.629Z,23.60
2022-12-18T23:11:15.910Z,23.20
2022-12-18T23:13:46.542Z,22.70
2022-12-18T23:16:17.702Z,25.20
2022-12-18T23:18:46.248Z,23.87
2022-12-18T23:21:17.018Z,24.00
2022-12-18T23:23:46.164Z,22.83
2022-12-18T23:26:18.435Z,23.90
2022-12-18T23:28:47.053Z,24.40
2022-12-18T23:31:18.297Z,22.03
2022-12-18T23:33:48.084Z,22.30
2022-12-18T23:36:19.464Z,22.50
2022-12-18T23:38:50.687Z,23.47
2022-12-18T23:41:22.490Z,25.43
2022-12-18T23:43:51.194Z,25.00
2022-12-18T23:46:21.703Z,22.27
2022-12-18T23:48:51.283Z,25.60
2022-12-18T23:51:23.270Z,22.67
2022-12-18T23:53:52.507Z,24.77
2022-12-18T23:56:22.696Z,23.13
2022-12-18T23:58:52.104Z,23.47
